Kent, Washington
Current Conditions -  °F | °C
As of 6:53 PM on Thursday 18 Dec 2014 (Local Time) from KSEA Reporting Station
Overcast Overcast  
Wind Chill: 42°   Ceiling: 4600
Heat Index: 47°   Visibility: 10mi
Dew Point: 40°   Wind: 10mph
Humidity: 77%   Direction: 110°ESE
Pressure: 29.74"   Gusts: NA
Location:  47.38°N, 122.23°W
Report Text: KSEA 190253Z 11009KT 10SM OVC046 08/04 A2974 RMK AO2 RAE31 SLP079 P0003 60006 T00830044 56022
Loading
Personal Weather Stations






























Interactive Weather Map New forecast layout! Learn more

10-Day Weather Forecast

Advertisements
Track Severe Weather on mobile